Time;durP1;ratioP1;P1;durP2;ratioP2;P2;SDS_P1;SDS_P2;PMS_P1;PMS_P2;Temp;Humidity;BMP_temperature;BMP_pressure;BME280_temperature;BME280_humidity;BME280_pressure;Samples;Min_cycle;Max_cycle;Signal;HPM_P1;HPM_P2
2022/07/24 00:01:25;;;;;;;9.77;7.80;;;;;;;21.45;61.16;97079.16;5027390;28;20068;-61
2022/07/24 00:03:52;;;;;;;8.30;7.35;;;;;;;21.13;61.09;97039.72;5033261;28;20044;-71
2022/07/24 00:06:20;;;;;;;11.55;8.02;;;;;;;21.39;61.21;97074.47;5046379;28;20119;-71
2022/07/24 00:08:47;;;;;;;12.90;7.63;;;;;;;21.33;61.58;97077.06;5047749;28;20052;-61
2022/07/24 00:11:14;;;;;;;9.52;6.65;;;;;;;21.27;61.31;97050.63;5047792;28;20419;-70
2022/07/24 00:13:41;;;;;;;8.48;6.30;;;;;;;21.25;61.97;97078.47;5047249;28;20061;-60
2022/07/24 00:16:08;;;;;;;11.82;7.00;;;;;;;21.14;62.46;97066.66;5047517;28;20076;-62
2022/07/24 00:18:35;;;;;;;7.28;6.20;;;;;;;21.06;62.61;97062.41;5047516;28;20044;-71
2022/07/24 00:21:02;;;;;;;8.07;6.25;;;;;;;20.80;63.31;97033.22;5045611;28;20049;-61
2022/07/24 00:23:29;;;;;;;9.68;6.00;;;;;;;20.98;63.54;97061.00;5045882;28;20080;-59
2022/07/24 00:25:56;;;;;;;10.75;6.95;;;;;;;20.72;63.45;97019.75;5047448;28;20048;-61
2022/07/24 00:28:23;;;;;;;9.80;7.00;;;;;;;20.61;63.42;96985.44;5047726;28;20071;-71
2022/07/24 00:30:49;;;;;;;7.78;6.32;;;;;;;20.72;63.69;97019.75;5047727;28;20045;-60
2022/07/24 00:33:16;;;;;;;6.60;6.00;;;;;;;21.06;63.71;97061.63;5047332;28;20059;-70
2022/07/24 00:35:43;;;;;;;9.45;6.70;;;;;;;20.99;63.98;97062.59;5047054;28;20143;-70
2022/07/24 00:38:10;;;;;;;7.93;6.15;;;;;;;20.86;64.16;97050.41;5045621;28;20244;-60
2022/07/24 00:40:37;;;;;;;7.20;6.53;;;;;;;20.42;64.46;97000.34;5046883;28;20057;-70
2022/07/24 00:43:04;;;;;;;7.68;6.68;;;;;;;20.59;64.96;97022.47;5046817;28;20543;-70
2022/07/24 00:45:31;;;;;;;10.30;6.68;;;;;;;20.80;65.13;97060.59;5046546;28;20440;-59
2022/07/24 00:47:58;;;;;;;7.32;6.63;;;;;;;20.74;65.23;97067.94;5046531;28;20508;-62
2022/07/24 00:50:25;;;;;;;8.73;7.03;;;;;;;20.68;65.81;97062.06;5046882;28;20057;-70
2022/07/24 00:52:52;;;;;;;7.93;6.10;;;;;;;20.80;65.18;97054.97;5046893;28;20075;-71
2022/07/24 00:55:21;;;;;;;10.38;6.88;;;;;;;20.70;65.46;97050.38;5046204;28;20427;-70
2022/07/24 00:57:49;;;;;;;9.40;6.45;;;;;;;20.23;65.95;97007.56;5046731;28;20118;-70
2022/07/24 01:00:19;;;;;;;9.50;6.22;;;;;;;20.47;66.36;97047.66;5045888;28;20069;-70
2022/07/24 01:02:45;;;;;;;9.65;6.70;;;;;;;20.28;67.21;97045.66;5045127;28;20527;-69
2022/07/24 01:05:13;;;;;;;7.03;6.35;;;;;;;20.34;66.90;97052.38;5030092;28;20049;-59
2022/07/24 01:07:40;;;;;;;9.20;6.80;;;;;;;20.43;66.79;97041.31;5026954;28;20068;-60
2022/07/24 01:10:07;;;;;;;8.25;6.50;;;;;;;20.30;66.79;97031.94;5026326;28;20053;-59
2022/07/24 01:12:37;;;;;;;6.95;6.22;;;;;;;20.24;67.64;97039.31;5026900;28;20061;-59
2022/07/24 01:15:06;;;;;;;10.65;6.80;;;;;;;20.21;67.75;97034.56;5025400;28;20405;-59
2022/07/24 01:17:35;;;;;;;7.50;6.22;;;;;;;19.81;68.11;96994.34;5026458;28;20530;-69
2022/07/24 01:20:04;;;;;;;7.20;6.50;;;;;;;20.28;67.48;97034.41;5024914;28;20543;-60
2022/07/24 01:22:31;;;;;;;7.30;6.32;;;;;;;20.24;67.94;97028.06;5025298;28;20479;-59
2022/07/24 01:24:58;;;;;;;9.43;6.45;;;;;;;20.20;67.93;97030.16;5026445;28;20049;-71
2022/07/24 01:27:25;;;;;;;8.77;6.35;;;;;;;20.07;68.27;97034.81;5025068;28;20060;-59
2022/07/24 01:29:52;;;;;;;6.80;6.10;;;;;;;20.05;68.69;97031.63;5026637;28;20049;-70
2022/07/24 01:32:19;;;;;;;9.02;6.47;;;;;;;19.91;69.02;97037.53;5024816;28;20059;-60
2022/07/24 01:34:46;;;;;;;7.00;6.00;;;;;;;19.91;69.34;97038.34;5026230;28;20464;-70
2022/07/24 01:37:13;;;;;;;7.55;6.25;;;;;;;19.82;69.47;97012.03;5024782;28;20049;-70
2022/07/24 01:39:39;;;;;;;7.85;6.22;;;;;;;19.41;69.39;96942.16;5025936;28;20057;-59
2022/07/24 01:42:06;;;;;;;10.35;6.88;;;;;;;19.89;69.71;97015.47;5026055;28;20053;-70
2022/07/24 01:44:33;;;;;;;7.20;6.03;;;;;;;19.77;69.73;97012.53;5026092;28;20443;-59
2022/07/24 01:46:59;;;;;;;10.02;5.90;;;;;;;19.90;69.76;97024.72;5025615;28;20053;-70
2022/07/24 01:49:26;;;;;;;8.35;6.18;;;;;;;19.92;69.60;97023.06;5025984;28;20511;-59
2022/07/24 01:51:53;;;;;;;8.77;6.78;;;;;;;19.70;69.13;96981.72;5025750;28;20523;-60
2022/07/24 01:54:19;;;;;;;9.13;6.53;;;;;;;19.90;69.63;97024.72;5024431;28;20045;-62
2022/07/24 01:56:46;;;;;;;9.27;6.22;;;;;;;19.40;69.68;96951.81;5024644;28;20057;-60
2022/07/24 01:59:13;;;;;;;6.75;6.10;;;;;;;19.42;70.03;96967.03;5024274;28;20049;-61
2022/07/24 02:01:40;;;;;;;9.07;6.35;;;;;;;19.59;70.79;97032.53;5025108;28;20101;-70
2022/07/24 02:04:07;;;;;;;9.13;6.82;;;;;;;19.61;71.06;97029.28;5032670;28;20056;-71
2022/07/24 02:06:33;;;;;;;8.15;6.18;;;;;;;19.20;71.19;96981.84;5045577;28;20523;-62
2022/07/24 02:09:01;;;;;;;7.97;5.72;;;;;;;18.94;71.86;96963.84;5045639;28;20056;-66
2022/07/24 02:11:28;;;;;;;7.90;6.38;;;;;;;19.42;71.83;97028.84;5045517;28;20470;-59
2022/07/24 02:13:56;;;;;;;9.10;6.25;;;;;;;19.43;71.38;97030.41;5045595;28;20079;-68
2022/07/24 02:16:23;;;;;;;8.15;7.35;;;;;;;19.49;71.36;97034.31;5045312;28;20131;-59
2022/07/24 02:18:50;;;;;;;8.27;6.35;;;;;;;19.34;71.30;97001.28;5045013;28;20072;-59
2022/07/24 02:21:17;;;;;;;8.30;6.40;;;;;;;18.83;71.67;96957.63;5042927;28;20396;-58
2022/07/24 02:23:44;;;;;;;8.30;6.55;;;;;;;19.50;71.55;97029.50;5043764;28;20049;-58
2022/07/24 02:26:11;;;;;;;9.60;5.95;;;;;;;19.40;72.17;97047.31;5043624;28;20057;-70
2022/07/24 02:28:37;;;;;;;7.22;6.43;;;;;;;19.38;72.27;97033.72;5044864;28;20060;-58
2022/07/24 02:31:04;;;;;;;7.30;6.22;;;;;;;19.44;72.31;97026.38;5045257;28;20064;-62
2022/07/24 02:33:31;;;;;;;7.32;6.13;;;;;;;19.39;72.33;97024.03;5044950;28;20110;-70
2022/07/24 02:35:58;;;;;;;9.02;6.22;;;;;;;19.29;72.08;97007.38;5044828;28;20052;-69
2022/07/24 02:38:24;;;;;;;10.70;6.38;;;;;;;19.29;72.55;97022.25;5044898;28;20049;-70
2022/07/24 02:40:51;;;;;;;8.23;6.40;;;;;;;19.31;72.52;97017.00;5042902;28;20048;-68
2022/07/24 02:43:17;;;;;;;7.75;6.88;;;;;;;19.18;73.15;97023.59;5044637;28;20052;-59
2022/07/24 02:45:44;;;;;;;8.40;6.55;;;;;;;19.18;73.20;97021.59;5043415;28;20105;-59
2022/07/24 02:48:18;;;;;;;9.80;6.78;;;;;;;19.18;73.43;97032.03;5044851;28;20715;-70
2022/07/24 02:50:45;;;;;;;9.02;6.47;;;;;;;19.23;73.03;97021.13;5044628;28;20110;-70
2022/07/24 02:53:12;;;;;;;6.72;5.85;;;;;;;19.25;73.46;97020.69;5043043;28;20056;-61
2022/07/24 02:55:39;;;;;;;8.52;6.82;;;;;;;18.78;73.60;96943.28;5044507;28;20048;-69
2022/07/24 02:58:05;;;;;;;7.78;6.75;;;;;;;19.11;73.60;97004.06;5044721;28;20049;-69
2022/07/24 03:00:32;;;;;;;9.88;7.35;;;;;;;19.08;73.63;97008.53;5044061;28;20073;-70
2022/07/24 03:02:59;;;;;;;10.90;8.35;;;;;;;18.47;73.83;96934.16;5044465;28;20048;-70
2022/07/24 03:05:25;;;;;;;13.50;8.13;;;;;;;19.08;73.94;97005.72;5026873;28;20053;-59
2022/07/24 03:07:52;;;;;;;9.40;7.60;;;;;;;18.62;74.44;96957.94;5024537;28;20440;-70
2022/07/24 03:10:19;;;;;;;7.45;6.30;;;;;;;18.42;74.93;96948.66;5024130;28;20061;-70
2022/07/24 03:12:46;;;;;;;13.32;10.00;;;;;;;18.92;74.56;97005.56;5024031;28;20065;-59
2022/07/24 03:15:13;;;;;;;13.38;8.73;;;;;;;18.90;74.68;97008.03;5023529;28;20057;-59
2022/07/24 03:17:49;;;;;;;10.98;8.38;;;;;;;18.90;74.14;96977.16;5022839;28;20049;-58
2022/07/24 03:20:15;;;;;;;9.48;6.65;;;;;;;19.04;74.25;97007.00;5024388;28;20057;-58
2022/07/24 03:22:43;;;;;;;10.85;6.82;;;;;;;18.83;73.44;96956.81;5024394;28;20136;-70
2022/07/24 03:25:10;;;;;;;10.00;6.15;;;;;;;18.39;74.39;96938.28;5024287;28;20057;-59
2022/07/24 03:27:37;;;;;;;12.15;7.78;;;;;;;19.06;73.72;97010.94;5023003;28;20045;-70
2022/07/24 03:30:05;;;;;;;12.57;8.20;;;;;;;19.09;73.84;97006.50;5024407;28;20428;-69
2022/07/24 03:32:32;;;;;;;9.52;7.15;;;;;;;19.09;73.94;97003.69;5025186;28;20426;-58
2022/07/24 03:34:59;;;;;;;7.78;6.07;;;;;;;19.11;74.17;97004.06;5028324;28;20059;-60
2022/07/24 03:37:25;;;;;;;9.68;6.50;;;;;;;19.01;73.86;96963.72;5027220;28;20131;-59
2022/07/24 03:39:52;;;;;;;7.57;6.63;;;;;;;18.93;74.38;96970.69;5026431;28;20057;-60
2022/07/24 03:42:19;;;;;;;9.30;5.72;;;;;;;19.28;73.92;97005.81;5026623;28;20097;-59
2022/07/24 03:44:45;;;;;;;8.18;7.32;;;;;;;19.34;73.28;96999.28;5028015;28;20115;-61
2022/07/24 03:47:12;;;;;;;8.98;7.43;;;;;;;19.46;72.40;97001.44;5027726;28;20069;-71
2022/07/24 03:49:39;;;;;;;10.93;6.68;;;;;;;19.26;72.41;96964.06;5026519;28;20053;-60
2022/07/24 03:52:05;;;;;;;11.25;7.35;;;;;;;19.67;71.97;97007.88;5027883;28;20061;-59
2022/07/24 03:54:32;;;;;;;13.18;6.60;;;;;;;19.75;71.75;97000.91;5027956;28;20054;-71
2022/07/24 03:56:59;;;;;;;8.43;7.63;;;;;;;19.45;71.68;96943.69;5027731;28;20060;-71
2022/07/24 03:59:25;;;;;;;8.77;7.22;;;;;;;19.87;71.49;96997.47;5028018;28;20053;-59
2022/07/24 04:01:52;;;;;;;9.35;7.68;;;;;;;19.85;70.64;96994.28;5027322;28;20057;-70
2022/07/24 04:04:19;;;;;;;10.23;6.63;;;;;;;19.60;69.50;96926.53;5035475;28;20052;-70
2022/07/24 04:06:45;;;;;;;11.23;6.82;;;;;;;19.98;68.69;96969.94;5046305;28;20044;-71
2022/07/24 04:09:13;;;;;;;9.65;8.02;;;;;;;20.22;68.19;96980.66;5047577;28;20061;-71
2022/07/24 04:11:40;;;;;;;11.30;8.10;;;;;;;20.48;67.95;96998.59;5047142;28;20052;-71
2022/07/24 04:14:07;;;;;;;12.13;7.65;;;;;;;20.60;67.24;97006.34;5047711;28;20443;-72
2022/07/24 04:16:33;;;;;;;14.30;9.32;;;;;;;20.51;68.87;97003.34;5047176;28;20049;-70
2022/07/24 04:19:00;;;;;;;17.42;9.95;;;;;;;20.46;69.75;97001.03;5047494;28;20077;-59
2022/07/24 04:21:32;;;;;;;10.50;8.88;;;;;;;19.75;68.13;96868.78;5047387;28;20075;-59
2022/07/24 04:23:59;;;;;;;10.60;8.57;;;;;;;20.65;67.84;97003.81;5047398;28;20076;-70
2022/07/24 04:26:26;;;;;;;11.73;8.48;;;;;;;20.12;67.73;96913.38;5047458;28;20045;-60
2022/07/24 04:28:53;;;;;;;10.40;8.63;;;;;;;20.98;66.38;96999.81;5047610;28;20057;-62
2022/07/24 04:31:19;;;;;;;10.38;8.40;;;;;;;21.10;66.08;97000.38;5047257;28;20140;-72
2022/07/24 04:33:46;;;;;;;10.90;8.85;;;;;;;21.08;65.82;96978.25;5046978;28;20526;-70
2022/07/24 04:36:13;;;;;;;10.35;7.43;;;;;;;21.43;65.85;97008.34;5047703;28;20061;-60
2022/07/24 04:38:40;;;;;;;8.70;7.80;;;;;;;21.61;65.05;97002.25;5047376;28;20056;-61
2022/07/24 04:41:06;;;;;;;10.43;7.90;;;;;;;21.75;64.42;97007.50;5046491;28;20060;-68
2022/07/24 04:43:33;;;;;;;9.32;7.57;;;;;;;21.71;64.02;96979.41;5046058;28;20104;-60
2022/07/24 04:46:00;;;;;;;11.25;6.97;;;;;;;22.05;63.31;97004.25;5045414;28;20075;-71
2022/07/24 04:48:26;;;;;;;13.07;7.70;;;;;;;22.08;62.70;96989.25;5047291;28;20064;-72
2022/07/24 04:50:53;;;;;;;8.02;6.85;;;;;;;22.31;62.70;97006.69;5046628;28;20543;-71
2022/07/24 04:53:20;;;;;;;8.52;7.00;;;;;;;22.47;62.27;97000.19;5046963;28;20056;-71
2022/07/24 04:55:47;;;;;;;13.35;6.53;;;;;;;22.53;61.16;97006.06;5045266;28;20056;-71
2022/07/24 04:58:13;;;;;;;10.52;7.78;;;;;;;22.82;60.65;96999.13;5046682;28;20063;-61
2022/07/24 05:00:40;;;;;;;8.05;7.05;;;;;;;22.93;60.03;96996.75;5045058;28;20053;-61
2022/07/24 05:03:07;;;;;;;8.27;6.78;;;;;;;22.99;59.52;96977.16;5046704;28;20110;-59
2022/07/24 05:05:34;;;;;;;16.05;7.70;;;;;;;23.20;59.29;96996.25;5028444;28;20054;-71
2022/07/24 05:08:00;;;;;;;11.40;8.63;;;;;;;23.35;59.16;96994.53;5026868;28;20057;-61
2022/07/24 05:10:27;;;;;;;12.20;9.27;;;;;;;23.25;59.74;96992.84;5026789;28;20056;-71
2022/07/24 05:12:54;;;;;;;14.65;9.43;;;;;;;23.41;59.10;97004.06;5026410;28;20064;-70
2022/07/24 05:15:27;;;;;;;17.70;9.73;;;;;;;23.05;59.56;96939.41;5025349;28;20064;-71
2022/07/24 05:17:53;;;;;;;12.05;9.35;;;;;;;23.74;58.39;96991.19;5026548;28;20057;-70
2022/07/24 05:20:20;;;;;;;10.90;9.07;;;;;;;23.95;57.39;96981.91;5026392;28;20065;-62
2022/07/24 05:22:47;;;;;;;9.23;7.88;;;;;;;24.04;56.63;96984.84;5026225;28;20060;-70
2022/07/24 05:25:13;;;;;;;10.18;8.05;;;;;;;24.36;56.54;96983.66;5025980;28;20049;-62
2022/07/24 05:27:40;;;;;;;9.80;8.38;;;;;;;24.55;56.40;96974.00;5026116;28;20132;-70
2022/07/24 05:30:07;;;;;;;11.55;8.32;;;;;;;24.75;56.06;96978.06;5026194;28;20053;-62
2022/07/24 05:32:34;;;;;;;9.20;8.27;;;;;;;24.99;55.46;96981.16;5026517;28;20119;-69
2022/07/24 05:35:01;;;;;;;12.95;9.30;;;;;;;24.94;55.94;96974.03;5026336;28;20049;-59
2022/07/24 05:37:28;;;;;;;9.38;8.25;;;;;;;25.24;55.18;96976.00;5025833;28;20507;-68
2022/07/24 05:39:55;;;;;;;9.27;8.27;;;;;;;25.48;53.38;96975.47;5025815;28;20053;-60
2022/07/24 05:42:23;;;;;;;10.80;8.88;;;;;;;25.54;53.88;96967.91;5026280;28;20429;-70
2022/07/24 05:44:50;;;;;;;12.30;7.90;;;;;;;25.36;54.32;96956.53;5025696;28;20093;-60
2022/07/24 05:47:17;;;;;;;12.13;8.63;;;;;;;25.69;53.57;96977.41;5025810;28;20492;-70
2022/07/24 05:49:44;;;;;;;9.57;8.57;;;;;;;25.78;53.72;96974.56;5024451;28;20076;-70
2022/07/24 05:52:11;;;;;;;9.50;8.50;;;;;;;25.71;53.16;96966.34;5024169;28;20053;-71
2022/07/24 05:54:37;;;;;;;10.45;7.90;;;;;;;25.89;52.47;96947.25;5025179;28;20416;-67
2022/07/24 05:57:04;;;;;;;11.02;8.40;;;;;;;26.31;51.24;96972.97;5025173;28;20056;-60
2022/07/24 05:59:32;;;;;;;13.73;9.93;;;;;;;26.14;50.85;96937.66;5025276;28;20057;-69
2022/07/24 06:02:01;;;;;;;9.88;8.05;;;;;;;26.62;49.61;96959.31;5024815;28;20064;-60
2022/07/24 06:04:28;;;;;;;10.32;8.88;;;;;;;27.02;48.40;96959.84;5033931;28;20091;-70
2022/07/24 06:06:55;;;;;;;9.25;8.35;;;;;;;27.25;47.44;96956.22;5044982;28;20045;-60
2022/07/24 06:09:21;;;;;;;14.25;10.25;;;;;;;26.97;46.65;96906.44;5045364;28;20056;-71
2022/07/24 06:11:48;;;;;;;12.90;8.52;;;;;;;27.54;46.08;96961.28;5044135;28;20506;-60
2022/07/24 06:14:15;;;;;;;10.13;9.05;;;;;;;27.61;46.14;96953.19;5045121;28;20649;-70
2022/07/24 06:16:41;;;;;;;17.77;10.27;;;;;;;27.92;45.42;96947.09;5044676;28;20048;-60
2022/07/24 06:19:08;;;;;;;12.10;9.77;;;;;;;27.85;45.57;96896.97;5044873;28;20086;-60
2022/07/24 06:21:35;;;;;;;12.98;9.80;;;;;;;28.40;44.76;96939.22;5044826;28;20060;-60
2022/07/24 06:24:02;;;;;;;12.35;9.82;;;;;;;28.51;44.89;96926.00;5044909;28;20061;-61
2022/07/24 06:26:28;;;;;;;11.60;8.80;;;;;;;28.88;43.50;96941.38;5044974;28;20423;-71
2022/07/24 06:29:04;;;;;;;13.55;10.82;;;;;;;29.03;42.90;96929.94;5043785;28;20417;-70
2022/07/24 06:31:31;;;;;;;10.52;9.63;;;;;;;29.09;43.31;96925.13;5044770;28;20060;-69
2022/07/24 06:33:59;;;;;;;10.32;8.85;;;;;;;29.09;42.62;96930.81;5043671;28;20123;-71
2022/07/24 06:36:27;;;;;;;11.43;9.23;;;;;;;29.18;42.80;96922.94;5044781;28;20045;-61
2022/07/24 06:38:53;;;;;;;12.88;9.68;;;;;;;29.34;42.92;96918.75;5044774;28;20053;-61
2022/07/24 06:41:20;;;;;;;12.85;9.73;;;;;;;28.86;42.49;96809.09;5044529;28;20053;-71
2022/07/24 06:43:47;;;;;;;11.25;10.15;;;;;;;29.86;41.80;96926.19;5044816;28;20110;-70
2022/07/24 06:46:13;;;;;;;12.70;8.98;;;;;;;30.04;41.37;96920.19;5043277;28;20045;-60
2022/07/24 06:48:40;;;;;;;10.82;9.80;;;;;;;30.24;40.79;96911.59;5044554;28;20530;-60
2022/07/24 06:51:07;;;;;;;11.55;10.13;;;;;;;30.40;41.14;96910.97;5044628;28;20048;-68
2022/07/24 06:53:34;;;;;;;10.98;9.82;;;;;;;30.57;40.85;96906.19;5044666;28;20057;-70
2022/07/24 06:56:01;;;;;;;10.85;9.85;;;;;;;30.44;41.00;96897.25;5044602;28;20510;-60
2022/07/24 06:58:28;;;;;;;15.02;10.70;;;;;;;30.38;40.72;96904.97;5044609;28;20048;-69
2022/07/24 07:00:54;;;;;;;14.48;10.10;;;;;;;30.14;41.17;96895.88;5044182;28;20515;-70
2022/07/24 07:03:21;;;;;;;11.10;9.45;;;;;;;30.36;40.69;96901.06;5044566;28;20061;-68
2022/07/24 07:05:48;;;;;;;12.68;9.88;;;;;;;30.43;40.41;96878.50;5025174;28;20050;-70
2022/07/24 07:08:14;;;;;;;11.13;10.05;;;;;;;30.75;40.46;96905.03;5024216;28;20045;-60
2022/07/24 07:10:41;;;;;;;110.63;102.22;;;;;;;31.10;40.25;96896.22;5024563;28;20060;-59
2022/07/24 07:13:08;;;;;;;12.75;11.38;;;;;;;30.81;39.74;96840.09;5024748;28;20049;-70
2022/07/24 07:15:34;;;;;;;11.50;10.45;;;;;;;31.21;39.57;96896.28;5024619;28;20065;-60
2022/07/24 07:18:01;;;;;;;10.20;9.40;;;;;;;30.89;39.70;96835.47;5024410;28;20053;-67
2022/07/24 07:20:28;;;;;;;11.10;10.00;;;;;;;31.48;39.46;96887.88;5024344;28;20056;-59
2022/07/24 07:22:55;;;;;;;11.68;10.40;;;;;;;31.71;39.01;96888.78;5024374;28;20064;-59
2022/07/24 07:25:22;;;;;;;11.13;10.10;;;;;;;31.71;38.27;96877.31;5024898;28;20060;-70
2022/07/24 07:27:49;;;;;;;10.35;9.35;;;;;;;31.85;37.92;96847.69;5024306;28;20054;-59
2022/07/24 07:30:16;;;;;;;11.30;9.43;;;;;;;32.22;38.00;96882.69;5024758;28;20061;-59
2022/07/24 07:32:42;;;;;;;10.70;9.68;;;;;;;32.13;37.19;96819.84;5024821;28;20061;-70
2022/07/24 07:35:09;;;;;;;11.00;9.70;;;;;;;32.65;36.70;96891.88;5024821;28;20057;-62
2022/07/24 07:37:48;;;;;;;15.98;9.95;;;;;;;32.50;36.77;96840.50;5024530;28;20611;-70
2022/07/24 07:40:14;;;;;;;11.50;10.38;;;;;;;32.86;36.25;96902.59;5024209;28;20575;-68
2022/07/24 07:42:41;;;;;;;12.80;10.68;;;;;;;33.13;35.59;96870.22;5023798;28;20060;-69
2022/07/24 07:45:08;;;;;;;13.27;10.15;;;;;;;33.14;35.83;96865.25;5024280;28;20053;-69
2022/07/24 07:47:36;;;;;;;11.48;10.38;;;;;;;33.49;35.96;96868.31;5024118;28;20050;-70
2022/07/24 07:50:05;;;;;;;13.30;10.98;;;;;;;33.63;35.09;96862.28;5022811;28;20151;-67
2022/07/24 07:52:31;;;;;;;14.95;9.98;;;;;;;32.86;34.93;96810.75;5023023;28;20049;-61
2022/07/24 07:54:58;;;;;;;11.70;10.05;;;;;;;33.13;35.27;96869.44;5022646;28;20049;-59
2022/07/24 07:57:25;;;;;;;10.80;9.73;;;;;;;32.97;35.11;96861.63;5023988;28;20064;-60
2022/07/24 08:00:13;;;;;;;9.48;8.68;;;;;;;33.03;35.03;96860.31;5023554;28;20053;-69
2022/07/24 08:02:39;;;;;;;12.63;9.98;;;;;;;33.11;34.93;96861.34;5023916;28;20069;-60
2022/07/24 08:05:07;;;;;;;11.95;9.98;;;;;;;32.73;34.82;96784.69;5036583;28;20053;-61
2022/07/24 08:07:34;;;;;;;10.90;10.02;;;;;;;32.67;35.18;96852.78;5043788;28;20072;-70
2022/07/24 08:10:01;;;;;;;12.25;10.88;;;;;;;32.65;34.98;96820.16;5042269;28;20503;-61
2022/07/24 08:12:28;;;;;;;10.30;9.50;;;;;;;33.27;34.60;96857.66;5043498;28;20281;-61
2022/07/24 08:14:54;;;;;;;10.27;9.48;;;;;;;31.90;34.57;96632.00;5043236;28;20144;-68
2022/07/24 08:17:22;;;;;;;11.02;10.02;;;;;;;33.21;34.67;96824.53;5043793;28;20106;-58
2022/07/24 08:19:48;;;;;;;12.65;9.93;;;;;;;33.49;33.81;96860.50;5047278;28;20049;-70
2022/07/24 08:22:15;;;;;;;11.18;10.07;;;;;;;33.68;34.15;96863.56;5046043;28;20069;-68
2022/07/24 08:24:42;;;;;;;10.88;9.82;;;;;;;33.24;34.20;96824.25;5045671;28;20060;-69
2022/07/24 08:27:08;;;;;;;10.90;9.90;;;;;;;33.34;33.88;96857.09;5046666;28;20060;-69
2022/07/24 08:29:35;;;;;;;12.52;10.38;;;;;;;33.78;34.07;96849.66;5047160;28;20396;-69
2022/07/24 08:32:02;;;;;;;9.98;9.18;;;;;;;33.75;33.35;96803.41;5045707;28;20053;-68
2022/07/24 08:34:29;;;;;;;10.50;9.38;;;;;;;33.68;33.61;96804.00;5046649;28;20478;-61
2022/07/24 08:36:56;;;;;;;10.93;10.02;;;;;;;34.15;33.73;96833.53;5046849;28;20053;-61
2022/07/24 08:39:22;;;;;;;13.90;9.35;;;;;;;33.27;33.80;96777.25;5046822;28;20049;-69
2022/07/24 08:41:51;;;;;;;12.07;10.05;;;;;;;33.72;33.66;96801.59;5046938;28;20064;-69
2022/07/24 08:44:18;;;;;;;10.65;9.60;;;;;;;33.96;33.36;96837.56;5045526;28;20045;-67
2022/07/24 08:46:45;;;;;;;16.65;13.18;;;;;;;34.00;33.15;96784.22;5045512;28;20503;-69
2022/07/24 08:49:13;;;;;;;11.27;10.30;;;;;;;34.60;32.65;96834.00;5047017;28;20158;-60
2022/07/24 08:51:42;;;;;;;11.57;10.05;;;;;;;34.55;33.06;96826.19;5045237;28;20498;-70
2022/07/24 08:54:10;;;;;;;11.43;10.18;;;;;;;34.84;32.89;96816.78;5046697;28;20053;-69
2022/07/24 08:56:41;;;;;;;13.80;10.90;;;;;;;35.06;32.15;96822.34;5046336;28;20053;-58
2022/07/24 08:59:26;;;;;;;10.75;9.73;;;;;;;34.70;32.17;96792.81;5046552;28;20057;-60
2022/07/24 09:01:53;;;;;;;9.70;8.57;;;;;;;34.64;32.22;96811.44;5044918;28;20118;-58
2022/07/24 09:04:35;;;;;;;10.80;9.60;;;;;;;34.79;32.33;96817.59;5039991;28;20079;-68
2022/07/24 09:07:14;;;;;;;10.50;9.55;;;;;;;34.79;32.37;96800.31;5026576;28;20054;-69
2022/07/24 09:09:42;;;;;;;10.88;9.68;;;;;;;35.00;32.03;96804.31;5026518;28;20053;-68
2022/07/24 09:12:14;;;;;;;11.13;9.70;;;;;;;35.21;31.75;96807.50;5026173;28;20638;-58
2022/07/24 09:14:44;;;;;;;13.48;10.63;;;;;;;34.98;32.39;96821.38;5026395;28;20401;-58
2022/07/24 09:17:13;;;;;;;14.88;10.18;;;;;;;35.05;32.07;96806.34;5026276;28;20046;-58
2022/07/24 09:19:49;;;;;;;11.55;10.20;;;;;;;35.60;31.84;96799.97;5026249;28;20064;-68
2022/07/24 09:22:37;;;;;;;10.85;9.77;;;;;;;35.75;31.42;96806.06;5025985;28;20053;-58
2022/07/24 09:25:05;;;;;;;10.88;9.77;;;;;;;35.71;31.20;96802.69;5024908;28;20524;-59
2022/07/24 09:27:36;;;;;;;10.98;9.13;;;;;;;35.19;31.64;96741.78;5024832;28;20067;-68
2022/07/24 09:30:05;;;;;;;10.25;9.32;;;;;;;35.32;31.76;96761.25;5025647;28;20061;-58
2022/07/24 09:32:38;;;;;;;9.98;9.27;;;;;;;35.56;31.62;96798.72;5024909;28;20160;-69
2022/07/24 09:35:05;;;;;;;10.80;9.77;;;;;;;35.59;31.54;96763.03;5026019;28;20495;-68
2022/07/24 09:37:32;;;;;;;12.23;10.18;;;;;;;35.69;30.74;96738.25;5025633;28;20508;-59
2022/07/24 09:40:08;;;;;;;11.45;10.13;;;;;;;35.33;31.36;96757.84;5025555;28;20049;-68
2022/07/24 09:42:38;;;;;;;10.32;9.43;;;;;;;35.74;31.04;96787.19;5025950;28;20057;-59
2022/07/24 09:45:08;;;;;;;12.52;10.57;;;;;;;35.94;31.00;96786.69;5025933;28;20049;-68
2022/07/24 09:47:35;;;;;;;11.93;10.68;;;;;;;35.53;30.67;96742.94;5024562;28;20113;-68
2022/07/24 09:50:16;;;;;;;11.57;10.18;;;;;;;36.15;30.69;96787.66;5026748;28;20448;-69
2022/07/24 09:52:44;;;;;;;11.70;10.52;;;;;;;36.16;31.01;96771.94;5025523;28;20137;-61
2022/07/24 09:55:24;;;;;;;12.70;9.77;;;;;;;36.27;29.36;96783.28;5025639;28;20056;-68
2022/07/24 09:57:50;;;;;;;12.32;11.05;;;;;;;35.92;29.68;96763.38;5023934;28;20058;-59
2022/07/24 10:00:17;;;;;;;16.40;10.25;;;;;;;36.18;29.47;96775.06;5025603;28;20436;-67
2022/07/24 10:02:46;;;;;;;11.52;10.30;;;;;;;36.50;29.44;96766.41;5025473;28;20616;-59
2022/07/24 10:05:14;;;;;;;12.57;9.85;;;;;;;36.54;28.75;96749.53;5038416;28;20159;-56
2022/07/24 10:07:48;;;;;;;11.77;9.95;;;;;;;36.48;28.76;96758.28;5045127;28;20053;-65
2022/07/24 10:10:15;;;;;;;13.90;11.38;;;;;;;36.21;29.08;96713.34;5044755;28;20056;-69
2022/07/24 10:12:45;;;;;;;15.45;10.63;;;;;;;36.85;28.55;96756.63;5045239;28;20139;-59
2022/07/24 10:15:12;;;;;;;17.08;10.32;;;;;;;36.93;28.27;96737.31;5045378;28;20513;-58
2022/07/24 10:17:54;;;;;;;10.85;9.75;;;;;;;37.41;27.45;96745.53;5043779;28;20087;-69
2022/07/24 10:20:42;;;;;;;12.23;10.20;;;;;;;37.47;27.40;96752.75;5045269;28;20056;-68
2022/07/24 10:23:25;;;;;;;10.82;10.02;;;;;;;37.35;26.18;96736.22;5044022;28;20045;-70
2022/07/24 10:26:16;;;;;;;11.90;10.68;;;;;;;37.65;27.06;96733.72;5044302;28;20145;-68
2022/07/24 10:28:43;;;;;;;14.73;11.25;;;;;;;38.19;25.89;96739.59;5045385;28;20256;-70
2022/07/24 10:31:13;;;;;;;12.25;10.07;;;;;;;38.34;24.68;96733.94;5045160;28;20060;-67
2022/07/24 10:33:42;;;;;;;10.80;9.90;;;;;;;38.10;24.50;96659.00;5045226;28;20057;-59
2022/07/24 10:36:24;;;;;;;10.52;9.55;;;;;;;38.67;25.04;96732.31;5045274;28;20536;-59
2022/07/24 10:39:10;;;;;;;11.20;10.05;;;;;;;38.83;24.62;96729.00;5044849;28;20431;-68
2022/07/24 10:41:37;;;;;;;13.50;10.38;;;;;;;38.91;25.40;96718.22;5043594;28;20579;-60
2022/07/24 10:44:19;;;;;;;11.25;10.25;;;;;;;38.89;24.38;96702.75;5044315;28;20511;-57
2022/07/24 10:47:04;;;;;;;11.88;10.90;;;;;;;38.76;24.57;96718.09;5044774;28;20131;-58
2022/07/24 10:49:39;;;;;;;11.98;10.98;;;;;;;38.88;24.06;96707.00;5044485;28;20048;-59
2022/07/24 10:52:10;;;;;;;11.23;10.18;;;;;;;38.44;24.40;96674.22;5043235;28;20132;-68
2022/07/24 10:54:38;;;;;;;11.50;10.13;;;;;;;38.70;24.56;96662.44;5044205;28;20088;-61
2022/07/24 10:57:05;;;;;;;14.48;10.65;;;;;;;39.25;23.36;96694.91;5044437;28;20079;-68
2022/07/24 10:59:42;;;;;;;11.63;10.73;;;;;;;39.66;23.49;96699.75;5043074;28;20060;-59
2022/07/24 11:02:29;;;;;;;14.90;12.52;;;;;;;39.73;23.24;96693.19;5044010;28;20056;-58
2022/07/24 11:05:25;;;;;;;13.82;12.38;;;;;;;39.62;23.08;96687.72;5033611;28;20050;-58
2022/07/24 11:08:18;;;;;;;11.57;10.77;;;;;;;40.00;22.61;96682.84;5024425;28;20139;-60
2022/07/24 11:10:46;;;;;;;10.30;9.50;;;;;;;39.49;22.43;96691.53;5022843;28;20053;-69
2022/07/24 11:13:31;;;;;;;12.07;11.10;;;;;;;38.73;22.72;96683.72;5023796;28;20045;-58
2022/07/24 11:16:10;;;;;;;12.25;11.27;;;;;;;38.93;22.55;96680.78;5023927;28;20311;-70
2022/07/24 11:18:38;;;;;;;13.02;11.95;;;;;;;38.30;23.20;96700.91;5023905;28;20524;-69
2022/07/24 11:21:12;;;;;;;14.18;12.30;;;;;;;38.99;22.84;96677.72;5022869;28;20073;-59
2022/07/24 11:23:38;;;;;;;12.68;11.35;;;;;;;39.58;22.09;96664.91;5023233;28;20053;-58
2022/07/24 11:26:30;;;;;;;12.00;11.05;;;;;;;39.69;22.62;96672.50;5024437;28;20055;-69
2022/07/24 11:29:14;;;;;;;11.95;11.00;;;;;;;39.44;22.55;96631.63;5024838;28;20060;-61
2022/07/24 11:31:43;;;;;;;13.57;11.68;;;;;;;39.55;22.37;96666.06;5023337;28;20049;-59
2022/07/24 11:34:11;;;;;;;12.30;10.88;;;;;;;39.21;22.76;96657.56;5024676;28;20049;-58